โซล, ประเทศเกาหลีใต้

03:58 AM KST วัน มีนาคม 03, 2015 (GMT +0900)
Incheon International | Change Station
CLOSE
Current Station
Airport
Location: Incheon,
Elevation: 23 ft
Nearby Weather Stations

Elev 23 ft 37.47 °N, 126.45 °E | Updated 28 minutes ago

Overcast
มีเมฆคลุมไปทั่ว
37 ฟาเรนไฮน์
Feels Like 31 ฟาเรนไฮน์
N
8
ลม ความผันแปร ลม from ทางทิศใต้และทิศตะวันออกเฉียงใต้

วันนี้
High -- | Low -- ฟาเรนไฮน์
--% Chance of Precip.
Yesterday
High -- | Low -- ฟาเรนไฮน์
Precip. -- นิ้ว
7:01 AM 6:27 PM
ข้างขึ้น, 92% visible
ความดัน 29.98 นิ้ว
ทัศนวิสัย 6.2 ไมล์
เมฆ มีเมฆคลุมเป็นส่วนใหญ่ 3000 ft
มีเมฆคลุมไปทั่ว 10000 ft
ลมหนาว 31 ฟาเรนไฮน์
อุณหภูมิที่อากาศอาจจับตัวเป็นหยาดน้ำค้าง 27 ฟาเรนไฮน์
ความชื้น 65%
Rainfall 0.00 นิ้ว
Snow Depth Not available.
UV 0 out of 12
Pollen Not available.
Air Quality Not available.
Flu Activity Not available.
METAR RKSI 021830Z 15007KT 9999 BKN030 OVC100 03/M03 Q1015 NOSIG

More Conditions Fewer Conditions

ความดัน 29.98 นิ้ว
ทัศนวิสัย 6.2 ไมล์
เมฆ มีเมฆคลุมเป็นส่วนใหญ่ 3000 ft
มีเมฆคลุมไปทั่ว 10000 ft
ลมหนาว 31 ฟาเรนไฮน์
อุณหภูมิที่อากาศอาจจับตัวเป็นหยาดน้ำค้าง 27 ฟาเรนไฮน์
ความชื้น 65%
Rainfall 0.00 นิ้ว
Snow Depth Not available.
UV 0 out of 12
Pollen Not available.
Air Quality Not available.
Flu Activity Not available.
METAR RKSI 021830Z 15007KT 9999 BKN030 OVC100 03/M03 Q1015 NOSIG

More Conditions Fewer Conditions

10-Day Weather Forecast

Almanac

ดาราศาสตร์

Mar. 03, 2015 Rise Set
Actual Time
Civil Twilight
Nautical Twilight
Astronomical Twilight
Moon
Length Of Visible Light
ความยาวของวัน
Tomorrow will be .
, % of the Moon is Illuminated

Today's Extremes

Country Highs Country Lows

Community

WunderPhotos

Upload Photos

1,801,906 photos uploaded!

WunderBlogs® & News

Nearby

Air Quality

  Air Quality AQ Index Pollutant
Not available.

Snow Depth

Station Depth Elevation

Earthquake Activity

City Distance Mag. Time & Date
Minimum magnitude displayed is 2.5.

Coastal Water Temperatures

สถานที่ อุณหภูมิ

Nearby Weather Stations